sensor_id;sensor_type;location;lat;lon;timestamp;P1;durP1;ratioP1;P2;durP2;ratioP2
19593;SDS011;9944;48.240;16.478;2023-06-22T00:03:23;6.47;;;2.78;;
19593;SDS011;9944;48.240;16.478;2023-06-22T00:07:48;5.18;;;3.05;;
19593;SDS011;9944;48.240;16.478;2023-06-22T00:12:13;5.53;;;2.85;;
19593;SDS011;9944;48.240;16.478;2023-06-22T00:16:37;5.97;;;2.97;;
19593;SDS011;9944;48.240;16.478;2023-06-22T00:21:00;6.80;;;2.92;;
19593;SDS011;9944;48.240;16.478;2023-06-22T00:25:24;5.20;;;2.80;;
19593;SDS011;9944;48.240;16.478;2023-06-22T00:29:49;5.25;;;3.10;;
19593;SDS011;9944;48.240;16.478;2023-06-22T00:34:12;6.88;;;3.10;;
19593;SDS011;9944;48.240;16.478;2023-06-22T00:38:36;4.07;;;2.95;;
19593;SDS011;9944;48.240;16.478;2023-06-22T00:43:03;6.43;;;3.35;;
19593;SDS011;9944;48.240;16.478;2023-06-22T00:47:31;5.03;;;3.00;;
19593;SDS011;9944;48.240;16.478;2023-06-22T00:51:55;6.22;;;2.90;;
19593;SDS011;9944;48.240;16.478;2023-06-22T00:56:22;5.07;;;2.75;;
19593;SDS011;9944;48.240;16.478;2023-06-22T01:00:47;4.13;;;2.85;;
19593;SDS011;9944;48.240;16.478;2023-06-22T01:05:13;5.57;;;2.80;;
19593;SDS011;9944;48.240;16.478;2023-06-22T01:09:39;9.63;;;3.05;;
19593;SDS011;9944;48.240;16.478;2023-06-22T01:14:19;5.72;;;3.00;;
19593;SDS011;9944;48.240;16.478;2023-06-22T01:18:52;7.85;;;3.33;;
19593;SDS011;9944;48.240;16.478;2023-06-22T01:23:26;7.07;;;3.10;;
19593;SDS011;9944;48.240;16.478;2023-06-22T01:27:56;6.75;;;2.90;;
19593;SDS011;9944;48.240;16.478;2023-06-22T01:32:28;11.02;;;3.33;;
19593;SDS011;9944;48.240;16.478;2023-06-22T01:36:54;4.65;;;3.17;;
19593;SDS011;9944;48.240;16.478;2023-06-22T01:41:19;5.15;;;3.35;;
19593;SDS011;9944;48.240;16.478;2023-06-22T01:45:44;5.82;;;3.83;;
19593;SDS011;9944;48.240;16.478;2023-06-22T01:50:09;6.53;;;3.15;;
19593;SDS011;9944;48.240;16.478;2023-06-22T01:54:33;6.88;;;3.53;;
19593;SDS011;9944;48.240;16.478;2023-06-22T01:59:00;5.35;;;3.33;;
19593;SDS011;9944;48.240;16.478;2023-06-22T02:03:31;5.55;;;3.70;;
19593;SDS011;9944;48.240;16.478;2023-06-22T02:08:02;9.05;;;3.97;;
19593;SDS011;9944;48.240;16.478;2023-06-22T02:12:30;4.68;;;3.47;;
19593;SDS011;9944;48.240;16.478;2023-06-22T02:16:55;6.07;;;3.38;;
19593;SDS011;9944;48.240;16.478;2023-06-22T02:21:21;4.28;;;3.22;;
19593;SDS011;9944;48.240;16.478;2023-06-22T02:25:45;5.00;;;3.30;;
19593;SDS011;9944;48.240;16.478;2023-06-22T02:30:10;8.68;;;3.42;;
19593;SDS011;9944;48.240;16.478;2023-06-22T02:34:33;5.43;;;3.10;;
19593;SDS011;9944;48.240;16.478;2023-06-22T02:38:58;10.32;;;4.07;;
19593;SDS011;9944;48.240;16.478;2023-06-22T02:43:26;7.97;;;3.80;;
19593;SDS011;9944;48.240;16.478;2023-06-22T02:47:49;5.82;;;3.45;;
19593;SDS011;9944;48.240;16.478;2023-06-22T02:52:13;6.68;;;3.50;;
19593;SDS011;9944;48.240;16.478;2023-06-22T02:56:37;5.38;;;3.35;;
19593;SDS011;9944;48.240;16.478;2023-06-22T03:01:04;6.53;;;3.63;;
19593;SDS011;9944;48.240;16.478;2023-06-22T03:05:30;8.05;;;3.40;;
19593;SDS011;9944;48.240;16.478;2023-06-22T03:09:54;5.57;;;3.10;;
19593;SDS011;9944;48.240;16.478;2023-06-22T03:14:19;7.32;;;3.47;;
19593;SDS011;9944;48.240;16.478;2023-06-22T03:18:44;9.40;;;3.20;;
19593;SDS011;9944;48.240;16.478;2023-06-22T03:23:08;7.78;;;3.70;;
19593;SDS011;9944;48.240;16.478;2023-06-22T03:27:33;7.07;;;3.30;;
19593;SDS011;9944;48.240;16.478;2023-06-22T03:31:56;5.30;;;3.28;;
19593;SDS011;9944;48.240;16.478;2023-06-22T03:36:22;5.25;;;3.00;;
19593;SDS011;9944;48.240;16.478;2023-06-22T03:40:46;9.98;;;3.35;;
19593;SDS011;9944;48.240;16.478;2023-06-22T03:45:09;5.88;;;3.17;;
19593;SDS011;9944;48.240;16.478;2023-06-22T03:49:35;6.03;;;3.17;;
19593;SDS011;9944;48.240;16.478;2023-06-22T03:54:00;7.05;;;3.38;;
19593;SDS011;9944;48.240;16.478;2023-06-22T03:58:24;6.47;;;3.60;;
19593;SDS011;9944;48.240;16.478;2023-06-22T04:02:47;6.47;;;3.28;;
19593;SDS011;9944;48.240;16.478;2023-06-22T04:07:11;7.70;;;3.75;;
19593;SDS011;9944;48.240;16.478;2023-06-22T04:11:36;8.10;;;3.60;;
19593;SDS011;9944;48.240;16.478;2023-06-22T04:16:00;5.07;;;3.40;;
19593;SDS011;9944;48.240;16.478;2023-06-22T04:20:24;7.60;;;3.33;;
19593;SDS011;9944;48.240;16.478;2023-06-22T04:24:51;6.95;;;3.50;;
19593;SDS011;9944;48.240;16.478;2023-06-22T04:29:16;7.85;;;4.03;;
19593;SDS011;9944;48.240;16.478;2023-06-22T04:33:39;6.55;;;3.35;;
19593;SDS011;9944;48.240;16.478;2023-06-22T04:38:02;12.65;;;4.30;;
19593;SDS011;9944;48.240;16.478;2023-06-22T04:42:26;9.82;;;3.78;;
19593;SDS011;9944;48.240;16.478;2023-06-22T04:46:51;6.22;;;3.72;;
19593;SDS011;9944;48.240;16.478;2023-06-22T04:51:22;9.98;;;4.50;;
19593;SDS011;9944;48.240;16.478;2023-06-22T04:55:52;7.22;;;3.80;;
19593;SDS011;9944;48.240;16.478;2023-06-22T05:00:17;10.40;;;4.38;;
19593;SDS011;9944;48.240;16.478;2023-06-22T05:04:46;5.32;;;3.50;;
19593;SDS011;9944;48.240;16.478;2023-06-22T05:09:14;6.88;;;3.90;;
19593;SDS011;9944;48.240;16.478;2023-06-22T05:13:39;8.13;;;3.97;;
19593;SDS011;9944;48.240;16.478;2023-06-22T05:18:02;7.80;;;4.50;;
19593;SDS011;9944;48.240;16.478;2023-06-22T05:22:28;6.95;;;4.15;;
19593;SDS011;9944;48.240;16.478;2023-06-22T05:26:52;7.90;;;4.03;;
19593;SDS011;9944;48.240;16.478;2023-06-22T05:31:16;7.80;;;4.25;;
19593;SDS011;9944;48.240;16.478;2023-06-22T05:35:41;6.00;;;4.05;;
19593;SDS011;9944;48.240;16.478;2023-06-22T05:40:07;10.85;;;4.88;;
19593;SDS011;9944;48.240;16.478;2023-06-22T05:44:32;8.13;;;4.05;;
19593;SDS011;9944;48.240;16.478;2023-06-22T05:48:55;7.90;;;3.88;;
19593;SDS011;9944;48.240;16.478;2023-06-22T05:53:19;10.48;;;4.10;;
19593;SDS011;9944;48.240;16.478;2023-06-22T05:57:44;6.55;;;3.78;;
19593;SDS011;9944;48.240;16.478;2023-06-22T06:02:08;10.13;;;5.13;;
19593;SDS011;9944;48.240;16.478;2023-06-22T06:06:31;12.10;;;5.00;;
19593;SDS011;9944;48.240;16.478;2023-06-22T06:10:57;6.82;;;4.43;;
19593;SDS011;9944;48.240;16.478;2023-06-22T06:15:22;8.57;;;4.95;;
19593;SDS011;9944;48.240;16.478;2023-06-22T06:19:46;9.85;;;4.97;;
19593;SDS011;9944;48.240;16.478;2023-06-22T06:24:09;8.15;;;4.97;;
19593;SDS011;9944;48.240;16.478;2023-06-22T06:28:33;11.73;;;5.00;;
19593;SDS011;9944;48.240;16.478;2023-06-22T06:32:58;10.63;;;4.90;;
19593;SDS011;9944;48.240;16.478;2023-06-22T06:37:22;7.72;;;4.53;;
19593;SDS011;9944;48.240;16.478;2023-06-22T06:41:45;8.55;;;4.85;;
19593;SDS011;9944;48.240;16.478;2023-06-22T06:46:10;8.35;;;4.82;;
19593;SDS011;9944;48.240;16.478;2023-06-22T06:50:35;9.57;;;4.63;;
19593;SDS011;9944;48.240;16.478;2023-06-22T06:54:58;6.72;;;4.57;;
19593;SDS011;9944;48.240;16.478;2023-06-22T06:59:22;9.25;;;4.35;;
19593;SDS011;9944;48.240;16.478;2023-06-22T07:03:45;10.90;;;5.47;;
19593;SDS011;9944;48.240;16.478;2023-06-22T07:08:10;9.98;;;5.07;;
19593;SDS011;9944;48.240;16.478;2023-06-22T07:12:34;7.68;;;4.60;;
19593;SDS011;9944;48.240;16.478;2023-06-22T07:16:58;8.43;;;5.07;;
19593;SDS011;9944;48.240;16.478;2023-06-22T07:21:21;9.82;;;4.88;;
19593;SDS011;9944;48.240;16.478;2023-06-22T07:25:46;7.00;;;4.85;;
19593;SDS011;9944;48.240;16.478;2023-06-22T07:30:11;8.77;;;5.18;;
19593;SDS011;9944;48.240;16.478;2023-06-22T07:34:35;9.50;;;4.95;;
19593;SDS011;9944;48.240;16.478;2023-06-22T07:38:59;9.77;;;5.35;;
19593;SDS011;9944;48.240;16.478;2023-06-22T07:43:24;9.48;;;4.53;;
19593;SDS011;9944;48.240;16.478;2023-06-22T07:47:47;5.80;;;3.70;;
19593;SDS011;9944;48.240;16.478;2023-06-22T07:52:11;8.02;;;4.43;;
19593;SDS011;9944;48.240;16.478;2023-06-22T07:56:36;6.03;;;3.45;;
19593;SDS011;9944;48.240;16.478;2023-06-22T08:01:01;5.55;;;3.53;;
19593;SDS011;9944;48.240;16.478;2023-06-22T08:05:25;8.45;;;3.97;;
19593;SDS011;9944;48.240;16.478;2023-06-22T08:09:49;8.82;;;3.78;;
19593;SDS011;9944;48.240;16.478;2023-06-22T08:14:13;5.15;;;3.33;;
19593;SDS011;9944;48.240;16.478;2023-06-22T08:18:38;6.55;;;3.47;;
19593;SDS011;9944;48.240;16.478;2023-06-22T08:23:02;6.22;;;3.20;;
19593;SDS011;9944;48.240;16.478;2023-06-22T08:27:28;7.88;;;3.80;;
19593;SDS011;9944;48.240;16.478;2023-06-22T08:31:53;6.30;;;2.97;;
19593;SDS011;9944;48.240;16.478;2023-06-22T08:36:18;4.68;;;2.88;;
19593;SDS011;9944;48.240;16.478;2023-06-22T08:40:42;4.68;;;3.25;;
19593;SDS011;9944;48.240;16.478;2023-06-22T08:45:05;10.02;;;3.47;;
19593;SDS011;9944;48.240;16.478;2023-06-22T08:49:30;4.97;;;2.95;;
19593;SDS011;9944;48.240;16.478;2023-06-22T08:53:54;6.75;;;3.03;;
19593;SDS011;9944;48.240;16.478;2023-06-22T08:58:18;3.90;;;2.97;;
19593;SDS011;9944;48.240;16.478;2023-06-22T09:02:43;4.30;;;3.08;;
19593;SDS011;9944;48.240;16.478;2023-06-22T09:07:07;6.75;;;3.90;;
19593;SDS011;9944;48.240;16.478;2023-06-22T09:11:32;5.68;;;2.83;;
19593;SDS011;9944;48.240;16.478;2023-06-22T09:15:56;3.83;;;2.92;;
19593;SDS011;9944;48.240;16.478;2023-06-22T09:20:20;4.50;;;3.10;;
19593;SDS011;9944;48.240;16.478;2023-06-22T09:24:44;3.33;;;2.63;;
19593;SDS011;9944;48.240;16.478;2023-06-22T09:29:08;5.97;;;2.88;;
19593;SDS011;9944;48.240;16.478;2023-06-22T09:33:32;5.40;;;2.75;;
19593;SDS011;9944;48.240;16.478;2023-06-22T09:37:56;6.22;;;3.13;;
19593;SDS011;9944;48.240;16.478;2023-06-22T09:42:19;3.13;;;2.58;;
19593;SDS011;9944;48.240;16.478;2023-06-22T09:46:44;5.78;;;2.92;;
19593;SDS011;9944;48.240;16.478;2023-06-22T09:51:08;5.65;;;2.92;;
19593;SDS011;9944;48.240;16.478;2023-06-22T09:55:32;5.50;;;2.50;;
19593;SDS011;9944;48.240;16.478;2023-06-22T09:59:55;4.07;;;2.92;;
19593;SDS011;9944;48.240;16.478;2023-06-22T10:04:20;6.32;;;2.80;;
19593;SDS011;9944;48.240;16.478;2023-06-22T10:08:45;5.68;;;2.90;;
19593;SDS011;9944;48.240;16.478;2023-06-22T10:13:10;5.43;;;2.80;;
19593;SDS011;9944;48.240;16.478;2023-06-22T10:17:34;5.82;;;2.90;;
19593;SDS011;9944;48.240;16.478;2023-06-22T10:21:59;4.07;;;2.95;;
19593;SDS011;9944;48.240;16.478;2023-06-22T10:26:23;4.53;;;2.53;;
19593;SDS011;9944;48.240;16.478;2023-06-22T10:30:46;3.28;;;2.40;;
19593;SDS011;9944;48.240;16.478;2023-06-22T10:35:10;3.85;;;2.15;;
19593;SDS011;9944;48.240;16.478;2023-06-22T10:39:37;4.90;;;2.10;;
19593;SDS011;9944;48.240;16.478;2023-06-22T10:44:01;6.07;;;2.40;;
19593;SDS011;9944;48.240;16.478;2023-06-22T10:48:24;2.40;;;1.92;;
19593;SDS011;9944;48.240;16.478;2023-06-22T10:52:48;4.95;;;2.25;;
19593;SDS011;9944;48.240;16.478;2023-06-22T10:57:13;5.25;;;2.20;;
19593;SDS011;9944;48.240;16.478;2023-06-22T11:01:37;2.50;;;1.92;;
19593;SDS011;9944;48.240;16.478;2023-06-22T11:06:01;3.05;;;2.00;;
19593;SDS011;9944;48.240;16.478;2023-06-22T11:10:24;3.67;;;2.63;;
19593;SDS011;9944;48.240;16.478;2023-06-22T11:14:50;6.93;;;3.20;;
19593;SDS011;9944;48.240;16.478;2023-06-22T11:19:14;4.57;;;2.97;;
19593;SDS011;9944;48.240;16.478;2023-06-22T11:23:38;7.28;;;2.97;;
19593;SDS011;9944;48.240;16.478;2023-06-22T11:28:02;3.58;;;2.90;;
19593;SDS011;9944;48.240;16.478;2023-06-22T11:32:26;5.93;;;2.70;;
19593;SDS011;9944;48.240;16.478;2023-06-22T11:36:51;3.88;;;2.65;;
19593;SDS011;9944;48.240;16.478;2023-06-22T11:41:14;3.33;;;2.83;;
19593;SDS011;9944;48.240;16.478;2023-06-22T11:45:38;4.20;;;2.70;;
19593;SDS011;9944;48.240;16.478;2023-06-22T11:50:03;4.43;;;2.42;;
19593;SDS011;9944;48.240;16.478;2023-06-22T11:54:27;4.63;;;2.58;;
19593;SDS011;9944;48.240;16.478;2023-06-22T11:58:51;4.97;;;2.30;;
19593;SDS011;9944;48.240;16.478;2023-06-22T12:03:16;5.50;;;2.17;;
19593;SDS011;9944;48.240;16.478;2023-06-22T12:07:41;5.68;;;3.53;;
19593;SDS011;9944;48.240;16.478;2023-06-22T12:12:05;3.28;;;2.25;;
19593;SDS011;9944;48.240;16.478;2023-06-22T12:16:29;3.22;;;2.28;;
19593;SDS011;9944;48.240;16.478;2023-06-22T12:20:53;4.03;;;2.00;;
19593;SDS011;9944;48.240;16.478;2023-06-22T12:25:18;5.07;;;2.58;;
19593;SDS011;9944;48.240;16.478;2023-06-22T12:29:42;6.78;;;2.88;;
19593;SDS011;9944;48.240;16.478;2023-06-22T12:34:05;3.40;;;2.20;;
19593;SDS011;9944;48.240;16.478;2023-06-22T12:38:29;5.85;;;2.22;;
19593;SDS011;9944;48.240;16.478;2023-06-22T12:42:54;4.00;;;2.30;;
19593;SDS011;9944;48.240;16.478;2023-06-22T12:47:17;4.00;;;2.10;;
19593;SDS011;9944;48.240;16.478;2023-06-22T12:51:42;6.03;;;2.65;;
19593;SDS011;9944;48.240;16.478;2023-06-22T12:56:07;3.70;;;1.95;;
19593;SDS011;9944;48.240;16.478;2023-06-22T13:00:31;3.03;;;1.90;;
19593;SDS011;9944;48.240;16.478;2023-06-22T13:04:55;2.70;;;1.92;;
19593;SDS011;9944;48.240;16.478;2023-06-22T13:09:19;3.92;;;2.00;;
19593;SDS011;9944;48.240;16.478;2023-06-22T13:13:43;5.35;;;2.67;;
19593;SDS011;9944;48.240;16.478;2023-06-22T13:18:08;3.28;;;1.90;;
19593;SDS011;9944;48.240;16.478;2023-06-22T13:22:33;2.30;;;1.90;;
19593;SDS011;9944;48.240;16.478;2023-06-22T13:27:02;3.20;;;2.10;;
19593;SDS011;9944;48.240;16.478;2023-06-22T13:31:26;2.55;;;1.88;;
19593;SDS011;9944;48.240;16.478;2023-06-22T13:35:51;6.03;;;2.00;;
19593;SDS011;9944;48.240;16.478;2023-06-22T13:40:14;2.88;;;2.00;;
19593;SDS011;9944;48.240;16.478;2023-06-22T13:44:38;3.17;;;2.00;;
19593;SDS011;9944;48.240;16.478;2023-06-22T13:49:02;1.98;;;1.80;;
19593;SDS011;9944;48.240;16.478;2023-06-22T13:53:26;4.15;;;2.08;;
19593;SDS011;9944;48.240;16.478;2023-06-22T13:57:50;4.28;;;2.40;;
19593;SDS011;9944;48.240;16.478;2023-06-22T14:02:14;2.80;;;2.13;;
19593;SDS011;9944;48.240;16.478;2023-06-22T14:06:38;3.08;;;2.50;;
19593;SDS011;9944;48.240;16.478;2023-06-22T14:11:03;5.50;;;2.50;;
19593;SDS011;9944;48.240;16.478;2023-06-22T14:15:26;4.13;;;2.40;;
19593;SDS011;9944;48.240;16.478;2023-06-22T14:19:50;3.25;;;2.08;;
19593;SDS011;9944;48.240;16.478;2023-06-22T14:24:14;3.55;;;2.33;;
19593;SDS011;9944;48.240;16.478;2023-06-22T14:28:39;4.25;;;2.45;;
19593;SDS011;9944;48.240;16.478;2023-06-22T14:33:02;3.72;;;2.45;;
19593;SDS011;9944;48.240;16.478;2023-06-22T14:37:26;5.80;;;2.38;;
19593;SDS011;9944;48.240;16.478;2023-06-22T14:41:50;4.70;;;2.15;;
19593;SDS011;9944;48.240;16.478;2023-06-22T14:46:15;6.68;;;2.30;;
19593;SDS011;9944;48.240;16.478;2023-06-22T14:50:40;2.92;;;2.30;;
19593;SDS011;9944;48.240;16.478;2023-06-22T14:55:04;4.07;;;2.50;;
19593;SDS011;9944;48.240;16.478;2023-06-22T14:59:29;4.63;;;2.88;;
19593;SDS011;9944;48.240;16.478;2023-06-22T15:03:53;5.53;;;2.35;;
19593;SDS011;9944;48.240;16.478;2023-06-22T15:08:17;4.15;;;2.55;;
19593;SDS011;9944;48.240;16.478;2023-06-22T15:12:41;4.50;;;2.50;;
19593;SDS011;9944;48.240;16.478;2023-06-22T15:17:05;3.45;;;2.30;;
19593;SDS011;9944;48.240;16.478;2023-06-22T15:21:31;4.63;;;2.63;;
19593;SDS011;9944;48.240;16.478;2023-06-22T15:25:56;3.15;;;2.80;;
19593;SDS011;9944;48.240;16.478;2023-06-22T15:30:19;4.25;;;2.72;;
19593;SDS011;9944;48.240;16.478;2023-06-22T15:34:43;3.35;;;2.90;;
19593;SDS011;9944;48.240;16.478;2023-06-22T15:39:08;4.13;;;2.70;;
19593;SDS011;9944;48.240;16.478;2023-06-22T15:43:31;6.85;;;3.25;;
19593;SDS011;9944;48.240;16.478;2023-06-22T15:47:55;3.95;;;2.80;;
19593;SDS011;9944;48.240;16.478;2023-06-22T15:52:18;5.95;;;3.20;;
19593;SDS011;9944;48.240;16.478;2023-06-22T15:56:43;4.13;;;2.78;;
19593;SDS011;9944;48.240;16.478;2023-06-22T16:01:07;4.32;;;2.92;;
19593;SDS011;9944;48.240;16.478;2023-06-22T16:05:31;8.57;;;3.00;;
19593;SDS011;9944;48.240;16.478;2023-06-22T16:09:55;4.50;;;3.50;;
19593;SDS011;9944;48.240;16.478;2023-06-22T16:14:20;6.35;;;3.40;;
19593;SDS011;9944;48.240;16.478;2023-06-22T16:18:44;6.30;;;3.80;;
19593;SDS011;9944;48.240;16.478;2023-06-22T16:23:09;6.82;;;3.92;;
19593;SDS011;9944;48.240;16.478;2023-06-22T16:27:32;7.10;;;3.75;;
19593;SDS011;9944;48.240;16.478;2023-06-22T16:31:58;5.60;;;3.92;;
19593;SDS011;9944;48.240;16.478;2023-06-22T16:36:22;4.68;;;3.80;;
19593;SDS011;9944;48.240;16.478;2023-06-22T16:40:45;5.07;;;3.50;;
19593;SDS011;9944;48.240;16.478;2023-06-22T16:45:09;9.07;;;3.38;;
19593;SDS011;9944;48.240;16.478;2023-06-22T16:49:37;6.95;;;3.75;;
19593;SDS011;9944;48.240;16.478;2023-06-22T16:54:01;7.72;;;3.53;;
19593;SDS011;9944;48.240;16.478;2023-06-22T16:58:24;5.15;;;4.00;;
19593;SDS011;9944;48.240;16.478;2023-06-22T17:02:49;7.45;;;4.47;;
19593;SDS011;9944;48.240;16.478;2023-06-22T17:07:15;8.02;;;3.85;;
19593;SDS011;9944;48.240;16.478;2023-06-22T17:11:42;6.78;;;3.72;;
19593;SDS011;9944;48.240;16.478;2023-06-22T17:16:05;7.50;;;4.00;;
19593;SDS011;9944;48.240;16.478;2023-06-22T17:20:32;7.00;;;3.78;;
19593;SDS011;9944;48.240;16.478;2023-06-22T17:24:57;4.97;;;3.97;;
19593;SDS011;9944;48.240;16.478;2023-06-22T17:29:23;7.05;;;3.30;;
19593;SDS011;9944;48.240;16.478;2023-06-22T17:33:53;6.60;;;2.90;;
19593;SDS011;9944;48.240;16.478;2023-06-22T17:38:19;3.95;;;3.42;;
19593;SDS011;9944;48.240;16.478;2023-06-22T17:42:45;7.80;;;3.60;;
19593;SDS011;9944;48.240;16.478;2023-06-22T17:47:09;6.70;;;2.97;;
19593;SDS011;9944;48.240;16.478;2023-06-22T17:51:32;6.53;;;3.17;;
19593;SDS011;9944;48.240;16.478;2023-06-22T17:55:56;8.00;;;3.63;;
19593;SDS011;9944;48.240;16.478;2023-06-22T18:00:25;5.82;;;3.25;;
19593;SDS011;9944;48.240;16.478;2023-06-22T18:04:49;4.72;;;3.22;;
19593;SDS011;9944;48.240;16.478;2023-06-22T18:09:14;6.82;;;3.80;;
19593;SDS011;9944;48.240;16.478;2023-06-22T18:13:39;4.80;;;3.40;;
19593;SDS011;9944;48.240;16.478;2023-06-22T18:18:05;6.57;;;3.70;;
19593;SDS011;9944;48.240;16.478;2023-06-22T18:22:31;5.95;;;3.30;;
19593;SDS011;9944;48.240;16.478;2023-06-22T18:26:55;5.55;;;3.50;;
19593;SDS011;9944;48.240;16.478;2023-06-22T18:31:20;5.43;;;3.20;;
19593;SDS011;9944;48.240;16.478;2023-06-22T18:35:46;5.93;;;3.97;;
19593;SDS011;9944;48.240;16.478;2023-06-22T18:40:13;6.47;;;3.25;;
19593;SDS011;9944;48.240;16.478;2023-06-22T18:44:39;4.68;;;3.67;;
19593;SDS011;9944;48.240;16.478;2023-06-22T18:49:10;4.47;;;3.70;;
19593;SDS011;9944;48.240;16.478;2023-06-22T18:53:36;7.30;;;3.92;;
19593;SDS011;9944;48.240;16.478;2023-06-22T18:58:13;8.27;;;3.75;;
19593;SDS011;9944;48.240;16.478;2023-06-22T19:02:41;8.98;;;3.67;;
19593;SDS011;9944;48.240;16.478;2023-06-22T19:07:08;6.93;;;3.60;;
19593;SDS011;9944;48.240;16.478;2023-06-22T19:11:35;6.65;;;3.75;;
19593;SDS011;9944;48.240;16.478;2023-06-22T19:15:59;14.07;;;4.85;;
19593;SDS011;9944;48.240;16.478;2023-06-22T19:20:26;7.05;;;3.90;;
19593;SDS011;9944;48.240;16.478;2023-06-22T19:24:54;6.38;;;3.70;;
19593;SDS011;9944;48.240;16.478;2023-06-22T19:29:23;4.38;;;3.05;;
19593;SDS011;9944;48.240;16.478;2023-06-22T19:33:50;6.93;;;3.85;;
19593;SDS011;9944;48.240;16.478;2023-06-22T19:38:16;5.25;;;3.22;;
19593;SDS011;9944;48.240;16.478;2023-06-22T19:42:40;5.55;;;3.90;;
19593;SDS011;9944;48.240;16.478;2023-06-22T19:47:07;4.78;;;3.53;;
19593;SDS011;9944;48.240;16.478;2023-06-22T19:51:31;6.65;;;3.70;;
19593;SDS011;9944;48.240;16.478;2023-06-22T19:55:56;5.63;;;3.50;;
19593;SDS011;9944;48.240;16.478;2023-06-22T20:00:21;8.63;;;4.18;;
19593;SDS011;9944;48.240;16.478;2023-06-22T20:04:46;6.05;;;4.05;;
19593;SDS011;9944;48.240;16.478;2023-06-22T20:09:10;9.32;;;3.83;;
19593;SDS011;9944;48.240;16.478;2023-06-22T20:13:45;7.63;;;3.67;;
19593;SDS011;9944;48.240;16.478;2023-06-22T20:18:10;5.60;;;3.53;;
19593;SDS011;9944;48.240;16.478;2023-06-22T20:22:41;6.65;;;4.30;;
19593;SDS011;9944;48.240;16.478;2023-06-22T20:27:09;4.75;;;3.30;;
19593;SDS011;9944;48.240;16.478;2023-06-22T20:31:34;6.75;;;3.60;;
19593;SDS011;9944;48.240;16.478;2023-06-22T20:35:59;6.05;;;3.30;;
19593;SDS011;9944;48.240;16.478;2023-06-22T20:40:25;6.80;;;3.70;;
19593;SDS011;9944;48.240;16.478;2023-06-22T20:44:50;4.90;;;3.15;;
19593;SDS011;9944;48.240;16.478;2023-06-22T20:49:13;4.40;;;3.50;;
19593;SDS011;9944;48.240;16.478;2023-06-22T20:53:39;6.40;;;3.80;;
19593;SDS011;9944;48.240;16.478;2023-06-22T20:58:03;5.10;;;3.72;;
19593;SDS011;9944;48.240;16.478;2023-06-22T21:02:28;6.55;;;4.13;;
19593;SDS011;9944;48.240;16.478;2023-06-22T21:06:52;5.60;;;3.92;;
19593;SDS011;9944;48.240;16.478;2023-06-22T21:11:16;7.45;;;4.63;;
19593;SDS011;9944;48.240;16.478;2023-06-22T21:15:40;11.23;;;4.05;;
19593;SDS011;9944;48.240;16.478;2023-06-22T21:20:05;5.57;;;3.65;;
19593;SDS011;9944;48.240;16.478;2023-06-22T21:24:29;5.65;;;4.03;;
19593;SDS011;9944;48.240;16.478;2023-06-22T21:28:53;6.60;;;4.03;;
19593;SDS011;9944;48.240;16.478;2023-06-22T21:33:18;7.05;;;4.55;;
19593;SDS011;9944;48.240;16.478;2023-06-22T21:37:42;7.00;;;4.38;;
19593;SDS011;9944;48.240;16.478;2023-06-22T21:42:08;7.60;;;4.82;;
19593;SDS011;9944;48.240;16.478;2023-06-22T21:46:33;7.93;;;4.68;;
19593;SDS011;9944;48.240;16.478;2023-06-22T21:50:57;8.63;;;4.70;;
19593;SDS011;9944;48.240;16.478;2023-06-22T21:55:21;8.27;;;4.90;;
19593;SDS011;9944;48.240;16.478;2023-06-22T21:59:45;6.65;;;4.90;;
19593;SDS011;9944;48.240;16.478;2023-06-22T22:04:08;13.57;;;5.60;;
19593;SDS011;9944;48.240;16.478;2023-06-22T22:08:33;6.82;;;5.60;;
19593;SDS011;9944;48.240;16.478;2023-06-22T22:12:57;8.15;;;5.50;;
19593;SDS011;9944;48.240;16.478;2023-06-22T22:17:20;8.82;;;6.03;;
19593;SDS011;9944;48.240;16.478;2023-06-22T22:21:44;9.73;;;6.13;;
19593;SDS011;9944;48.240;16.478;2023-06-22T22:26:09;11.15;;;6.95;;
19593;SDS011;9944;48.240;16.478;2023-06-22T22:30:32;10.10;;;6.05;;
19593;SDS011;9944;48.240;16.478;2023-06-22T22:34:56;10.40;;;6.97;;
19593;SDS011;9944;48.240;16.478;2023-06-22T22:39:29;12.07;;;6.68;;
19593;SDS011;9944;48.240;16.478;2023-06-22T22:43:56;10.25;;;6.88;;
19593;SDS011;9944;48.240;16.478;2023-06-22T22:48:21;11.38;;;7.05;;
19593;SDS011;9944;48.240;16.478;2023-06-22T22:52:44;11.00;;;6.65;;
19593;SDS011;9944;48.240;16.478;2023-06-22T22:57:08;10.38;;;6.63;;
19593;SDS011;9944;48.240;16.478;2023-06-22T23:01:33;9.85;;;6.50;;
19593;SDS011;9944;48.240;16.478;2023-06-22T23:05:58;12.20;;;7.15;;
19593;SDS011;9944;48.240;16.478;2023-06-22T23:10:22;7.88;;;6.45;;
19593;SDS011;9944;48.240;16.478;2023-06-22T23:14:46;10.43;;;6.70;;
19593;SDS011;9944;48.240;16.478;2023-06-22T23:19:11;8.30;;;6.40;;
19593;SDS011;9944;48.240;16.478;2023-06-22T23:23:35;11.20;;;6.53;;
19593;SDS011;9944;48.240;16.478;2023-06-22T23:27:58;10.30;;;6.43;;
19593;SDS011;9944;48.240;16.478;2023-06-22T23:32:22;8.98;;;6.93;;
19593;SDS011;9944;48.240;16.478;2023-06-22T23:36:47;10.20;;;6.18;;
19593;SDS011;9944;48.240;16.478;2023-06-22T23:41:11;10.48;;;6.38;;
19593;SDS011;9944;48.240;16.478;2023-06-22T23:45:35;12.80;;;6.53;;
19593;SDS011;9944;48.240;16.478;2023-06-22T23:49:58;8.30;;;6.20;;
19593;SDS011;9944;48.240;16.478;2023-06-22T23:54:23;9.25;;;5.95;;
19593;SDS011;9944;48.240;16.478;2023-06-22T23:58:47;11.27;;;6.32;;
